createdAt,value
2023-02-03T05:41:58.436Z,3.40
2023-02-03T05:45:01.363Z,4.30
2023-02-03T05:48:05.432Z,2.15
2023-02-03T05:51:07.924Z,3.50
2023-02-03T05:54:10.617Z,2.42
2023-02-03T05:57:13.638Z,2.25
2023-02-03T06:00:16.533Z,1.80
2023-02-03T06:03:22.223Z,2.85
2023-02-03T06:06:24.864Z,2.75
2023-02-03T06:09:27.396Z,2.90
2023-02-03T06:12:29.869Z,2.58
2023-02-03T06:15:32.437Z,2.75
2023-02-03T06:18:34.977Z,3.20
2023-02-03T06:21:37.452Z,7.80
2023-02-03T06:24:40.012Z,7.65
2023-02-03T06:27:42.661Z,7.00
2023-02-03T06:30:45.441Z,4.57
2023-02-03T06:33:48.085Z,4.20
2023-02-03T06:36:50.615Z,3.80
2023-02-03T06:39:53.108Z,4.50
2023-02-03T06:42:55.851Z,4.07
2023-02-03T06:45:58.498Z,5.70
2023-02-03T06:49:01.154Z,7.37
2023-02-03T06:52:03.833Z,6.55
2023-02-03T06:55:06.843Z,8.10
2023-02-03T06:58:09.359Z,7.35
2023-02-03T07:01:11.983Z,6.00
2023-02-03T07:04:14.520Z,6.03
2023-02-03T07:07:17.216Z,5.93
2023-02-03T07:10:19.901Z,4.75
2023-02-03T07:13:22.459Z,5.18
2023-02-03T07:16:25.053Z,5.12
2023-02-03T07:19:27.610Z,6.32
2023-02-03T07:22:30.140Z,6.68
2023-02-03T07:25:32.696Z,6.75
2023-02-03T07:28:35.456Z,10.88
2023-02-03T07:31:38.577Z,11.82
2023-02-03T07:34:41.286Z,12.07
2023-02-03T07:37:43.895Z,12.05
2023-02-03T07:40:46.466Z,11.65
2023-02-03T07:43:49.022Z,14.10
2023-02-03T07:46:51.561Z,15.95
2023-02-03T07:49:54.195Z,15.32
2023-02-03T07:52:56.774Z,20.70
2023-02-03T07:56:03.169Z,15.35
2023-02-03T07:59:05.731Z,10.30
2023-02-03T08:02:11.390Z,8.50
2023-02-03T08:05:14.191Z,13.13
2023-02-03T08:08:16.936Z,16.35
2023-02-03T08:11:19.746Z,17.67
2023-02-03T08:14:22.442Z,14.27
2023-02-03T08:17:25.059Z,19.08
2023-02-03T08:20:27.939Z,13.77
2023-02-03T08:23:31.112Z,7.50
2023-02-03T08:26:34.160Z,6.30
2023-02-03T08:29:36.726Z,5.80
2023-02-03T08:32:39.312Z,7.20
2023-02-03T08:35:44.991Z,7.75
2023-02-03T08:38:47.562Z,17.65
2023-02-03T08:41:50.110Z,13.60
2023-02-03T08:44:53.064Z,9.80
2023-02-03T08:47:55.580Z,10.00
2023-02-03T08:50:58.247Z,9.93
2023-02-03T08:54:00.851Z,7.03
2023-02-03T08:57:03.516Z,9.90
2023-02-03T09:00:06.656Z,7.18
2023-02-03T09:03:09.314Z,7.40
2023-02-03T09:06:13.325Z,9.32
2023-02-03T09:09:15.929Z,10.10
2023-02-03T09:12:18.583Z,9.68
2023-02-03T09:15:21.130Z,7.28
2023-02-03T09:18:23.632Z,7.68
2023-02-03T09:21:34.052Z,7.78
2023-02-03T09:24:43.905Z,3.72
2023-02-03T09:27:46.596Z,4.70
2023-02-03T09:30:49.225Z,5.07
2023-02-03T09:33:51.804Z,4.22
2023-02-03T09:36:54.427Z,5.50
2023-02-03T09:39:58.902Z,4.20
2023-02-03T09:43:24.739Z,6.10
2023-02-03T09:46:28.856Z,6.05
2023-02-03T09:49:52.555Z,5.03
2023-02-03T09:52:55.127Z,5.70
2023-02-03T09:55:57.728Z,7.80
2023-02-03T09:59:01.412Z,12.57
2023-02-03T10:02:10.244Z,10.02
2023-02-03T10:05:31.969Z,13.32
2023-02-03T10:08:53.282Z,11.70
2023-02-03T10:11:59.031Z,13.60
2023-02-03T10:15:19.893Z,10.68
2023-02-03T10:18:28.965Z,11.40
2023-02-03T10:21:42.314Z,9.45
2023-02-03T10:25:02.998Z,10.43
2023-02-03T10:28:11.225Z,10.90
2023-02-03T10:31:18.038Z,9.43
2023-02-03T10:34:20.771Z,8.30
2023-02-03T10:37:31.156Z,7.95
2023-02-03T10:40:33.804Z,6.75
2023-02-03T10:43:48.728Z,7.43
2023-02-03T10:46:51.311Z,7.22
2023-02-03T10:49:55.528Z,7.70
2023-02-03T10:53:26.721Z,7.47
2023-02-03T10:56:35.595Z,7.70
2023-02-03T10:59:43.775Z,7.18
2023-02-03T11:02:46.410Z,5.82
2023-02-03T11:06:13.445Z,6.57
2023-02-03T11:09:40.283Z,6.85
2023-02-03T11:12:42.815Z,6.60
2023-02-03T11:15:58.271Z,6.45
2023-02-03T11:19:11.551Z,6.75
2023-02-03T11:22:37.336Z,5.85
2023-02-03T11:25:40.007Z,5.75
2023-02-03T11:28:43.631Z,6.07
2023-02-03T11:31:50.539Z,5.90
2023-02-03T11:35:02.511Z,5.80
2023-02-03T11:38:05.096Z,6.85
2023-02-03T11:41:16.360Z,7.10
2023-02-03T11:44:29.317Z,6.37
2023-02-03T11:47:31.814Z,10.02
2023-02-03T11:50:49.575Z,9.07
2023-02-03T11:54:19.489Z,14.68
2023-02-03T11:57:22.057Z,12.90
2023-02-03T12:00:31.591Z,10.35
2023-02-03T12:04:02.351Z,8.45
2023-02-03T12:07:31.587Z,9.43
2023-02-03T12:10:56.959Z,9.13
2023-02-03T12:14:24.346Z,6.60
2023-02-03T12:17:33.612Z,7.30
2023-02-03T12:20:40.723Z,7.90
2023-02-03T12:24:04.403Z,15.35
2023-02-03T12:27:27.117Z,9.13
2023-02-03T12:30:33.260Z,5.55
2023-02-03T12:33:40.634Z,5.65
2023-02-03T12:36:48.089Z,5.60
2023-02-03T12:40:21.801Z,5.20
2023-02-03T12:43:33.637Z,4.50
2023-02-03T12:46:50.158Z,4.45
2023-02-03T12:50:01.163Z,6.28
2023-02-03T12:53:12.404Z,4.55
2023-02-03T12:56:17.075Z,4.87
2023-02-03T12:59:23.066Z,4.78
2023-02-03T13:02:35.479Z,4.30
2023-02-03T13:05:47.431Z,4.72
2023-02-03T13:09:21.314Z,5.47
2023-02-03T13:12:47.646Z,5.60
2023-02-03T13:15:52.831Z,5.32
2023-02-03T13:18:59.851Z,5.60
2023-02-03T13:22:02.662Z,6.25
2023-02-03T13:25:28.952Z,6.55
2023-02-03T13:29:08.405Z,7.60
2023-02-03T13:32:26.303Z,13.00
2023-02-03T13:36:10.627Z,16.27
2023-02-03T13:39:38.111Z,11.73
2023-02-03T13:42:46.807Z,11.73
2023-02-03T13:45:50.818Z,9.68
2023-02-03T13:48:53.555Z,11.20
2023-02-03T13:51:56.220Z,10.15
2023-02-03T13:54:58.816Z,20.05
2023-02-03T13:58:01.601Z,14.90
2023-02-03T14:01:37.233Z,9.80
2023-02-03T14:04:45.703Z,8.95
2023-02-03T14:07:48.339Z,8.98
2023-02-03T14:11:29.137Z,7.80
2023-02-03T14:14:34.940Z,8.70
2023-02-03T14:17:43.473Z,7.85
2023-02-03T14:20:49.026Z,9.80
2023-02-03T14:23:55.774Z,9.85
2023-02-03T14:26:58.329Z,9.55
2023-02-03T14:30:09.087Z,9.48
2023-02-03T14:33:11.674Z,8.38
2023-02-03T14:36:38.080Z,9.20
2023-02-03T14:40:07.483Z,9.30
2023-02-03T14:43:19.575Z,9.43
2023-02-03T14:46:53.627Z,8.63
2023-02-03T14:49:59.352Z,12.50
2023-02-03T14:53:01.773Z,11.70
2023-02-03T14:56:07.101Z,10.00
2023-02-03T15:02:15.165Z,9.63
2023-02-03T15:05:17.922Z,12.07
2023-02-03T15:08:34.220Z,11.82
2023-02-03T15:11:46.938Z,11.40
2023-02-03T15:14:49.456Z,11.55
2023-02-03T15:17:53.749Z,11.40
2023-02-03T15:20:56.404Z,10.02
2023-02-03T15:23:58.939Z,11.40
2023-02-03T15:27:01.457Z,10.95
2023-02-03T15:30:25.419Z,10.52
2023-02-03T15:33:27.964Z,11.15
2023-02-03T15:36:44.653Z,11.02
2023-02-03T15:39:59.435Z,10.52
2023-02-03T15:43:04.551Z,9.03
2023-02-03T15:46:13.266Z,8.55
2023-02-03T15:49:25.560Z,10.13
2023-02-03T15:52:28.194Z,9.07
2023-02-03T15:55:43.869Z,8.68
2023-02-03T15:58:47.156Z,7.62
2023-02-03T16:01:49.819Z,7.93
2023-02-03T16:04:52.465Z,7.87
2023-02-03T16:07:55.127Z,8.60
2023-02-03T16:10:57.663Z,8.05
2023-02-03T16:14:07.198Z,6.47
2023-02-03T16:17:34.754Z,6.10
2023-02-03T16:20:37.659Z,5.37
2023-02-03T16:23:40.194Z,5.55
2023-02-03T16:26:42.686Z,5.40
2023-02-03T16:30:03.960Z,5.80
2023-02-03T16:33:28.331Z,6.93
2023-02-03T16:36:49.759Z,7.53
2023-02-03T16:40:10.927Z,7.43
2023-02-03T16:43:33.266Z,8.80
2023-02-03T16:46:54.477Z,8.00
2023-02-03T16:50:15.431Z,9.38
2023-02-03T16:53:20.316Z,9.57
